Hoxeyville, Michigan
Current Conditions -  °F | °C
As of 9:34 AM on Saturday 25 Oct 2014 (Local Time) from KCAD Reporting Station
Clear Clear  
Wind Chill: 12°   Ceiling: Unl
Heat Index: 12°   Visibility: 10mi
Dew Point: 10°   Wind: 10mph
Humidity: 86%   Direction: 250°WSW
Pressure: 29.78"   Gusts: 16mph
Location:  44.2433°N, 85.5328°W
Report Text: KCAD 251334Z AUTO 25009G14KT 10SM CLR 12/10 A2978 RMK AO2 T01240102
Loading
Personal Weather Stations






























Interactive Weather Map
Tropical Storm Tracking
New forecast layout! Learn more

10-Day Weather Forecast

Advertisements
Track Severe Weather on mobile